sensor_id;sensor_type;location;lat;lon;timestamp;temperature;humidity
17236;DHT22;8734;59.272;17.780;2023-03-20T00:00:59;2.50;99.90
17236;DHT22;8734;59.272;17.780;2023-03-20T00:03:27;2.60;99.90
17236;DHT22;8734;59.272;17.780;2023-03-20T00:05:56;2.60;99.90
17236;DHT22;8734;59.272;17.780;2023-03-20T00:08:24;2.60;99.90
17236;DHT22;8734;59.272;17.780;2023-03-20T00:10:57;2.50;99.90
17236;DHT22;8734;59.272;17.780;2023-03-20T00:13:26;2.60;99.90
17236;DHT22;8734;59.272;17.780;2023-03-20T00:15:55;2.60;99.90
17236;DHT22;8734;59.272;17.780;2023-03-20T00:18:23;2.60;99.90
17236;DHT22;8734;59.272;17.780;2023-03-20T00:20:52;2.60;99.90
17236;DHT22;8734;59.272;17.780;2023-03-20T00:23:21;2.60;99.90
17236;DHT22;8734;59.272;17.780;2023-03-20T00:25:49;2.60;99.90
17236;DHT22;8734;59.272;17.780;2023-03-20T00:28:38;2.60;99.90
17236;DHT22;8734;59.272;17.780;2023-03-20T00:31:17;2.60;99.90
17236;DHT22;8734;59.272;17.780;2023-03-20T00:33:47;2.60;99.90
17236;DHT22;8734;59.272;17.780;2023-03-20T00:36:15;2.70;99.90
17236;DHT22;8734;59.272;17.780;2023-03-20T00:38:44;2.60;99.90
17236;DHT22;8734;59.272;17.780;2023-03-20T00:41:20;2.70;99.90
17236;DHT22;8734;59.272;17.780;2023-03-20T00:43:53;2.70;99.90
17236;DHT22;8734;59.272;17.780;2023-03-20T00:46:22;2.60;99.90
17236;DHT22;8734;59.272;17.780;2023-03-20T00:48:51;2.70;99.90
17236;DHT22;8734;59.272;17.780;2023-03-20T00:51:19;2.70;99.90
17236;DHT22;8734;59.272;17.780;2023-03-20T00:53:48;2.70;99.90
17236;DHT22;8734;59.272;17.780;2023-03-20T00:56:30;2.70;99.90
17236;DHT22;8734;59.272;17.780;2023-03-20T00:59:02;2.70;99.90
17236;DHT22;8734;59.272;17.780;2023-03-20T01:01:31;2.70;99.90
17236;DHT22;8734;59.272;17.780;2023-03-20T01:03:59;2.70;99.90
17236;DHT22;8734;59.272;17.780;2023-03-20T01:06:28;2.70;99.90
17236;DHT22;8734;59.272;17.780;2023-03-20T01:08:57;2.70;99.90
17236;DHT22;8734;59.272;17.780;2023-03-20T01:11:25;2.70;99.90
17236;DHT22;8734;59.272;17.780;2023-03-20T01:13:55;2.70;99.90
17236;DHT22;8734;59.272;17.780;2023-03-20T01:16:25;2.70;99.90
17236;DHT22;8734;59.272;17.780;2023-03-20T01:18:54;2.70;99.90
17236;DHT22;8734;59.272;17.780;2023-03-20T01:21:23;2.70;99.90
17236;DHT22;8734;59.272;17.780;2023-03-20T01:23:51;2.70;99.90
17236;DHT22;8734;59.272;17.780;2023-03-20T01:26:21;2.70;99.90
17236;DHT22;8734;59.272;17.780;2023-03-20T01:28:52;2.80;99.90
17236;DHT22;8734;59.272;17.780;2023-03-20T01:31:21;2.80;99.90
17236;DHT22;8734;59.272;17.780;2023-03-20T01:33:50;2.70;99.90
17236;DHT22;8734;59.272;17.780;2023-03-20T01:36:21;2.70;99.90
17236;DHT22;8734;59.272;17.780;2023-03-20T01:38:54;2.70;99.90
17236;DHT22;8734;59.272;17.780;2023-03-20T01:41:24;2.70;99.90
17236;DHT22;8734;59.272;17.780;2023-03-20T01:43:53;2.80;99.90
17236;DHT22;8734;59.272;17.780;2023-03-20T01:46:23;2.80;99.90
17236;DHT22;8734;59.272;17.780;2023-03-20T01:52:14;2.80;99.90
17236;DHT22;8734;59.272;17.780;2023-03-20T01:54:42;2.80;99.90
17236;DHT22;8734;59.272;17.780;2023-03-20T01:57:14;2.80;99.90
17236;DHT22;8734;59.272;17.780;2023-03-20T01:59:46;2.80;99.90
17236;DHT22;8734;59.272;17.780;2023-03-20T02:02:20;2.90;99.90
17236;DHT22;8734;59.272;17.780;2023-03-20T02:04:54;2.90;99.90
17236;DHT22;8734;59.272;17.780;2023-03-20T02:07:23;2.90;99.90
17236;DHT22;8734;59.272;17.780;2023-03-20T02:09:52;2.90;99.90
17236;DHT22;8734;59.272;17.780;2023-03-20T02:12:21;2.90;99.90
17236;DHT22;8734;59.272;17.780;2023-03-20T02:14:49;3.00;99.90
17236;DHT22;8734;59.272;17.780;2023-03-20T02:17:19;3.00;99.90
17236;DHT22;8734;59.272;17.780;2023-03-20T02:19:57;3.00;99.90
17236;DHT22;8734;59.272;17.780;2023-03-20T02:22:47;3.00;99.90
17236;DHT22;8734;59.272;17.780;2023-03-20T02:25:56;3.00;99.90
17236;DHT22;8734;59.272;17.780;2023-03-20T02:38:24;3.00;99.90
17236;DHT22;8734;59.272;17.780;2023-03-20T02:41:01;3.10;99.90
17236;DHT22;8734;59.272;17.780;2023-03-20T02:43:37;3.00;99.90
17236;DHT22;8734;59.272;17.780;2023-03-20T02:46:13;3.10;99.90
17236;DHT22;8734;59.272;17.780;2023-03-20T02:48:54;3.10;99.90
17236;DHT22;8734;59.272;17.780;2023-03-20T02:51:28;3.10;99.90
17236;DHT22;8734;59.272;17.780;2023-03-20T02:54:05;3.10;99.90
17236;DHT22;8734;59.272;17.780;2023-03-20T02:56:40;3.00;99.90
17236;DHT22;8734;59.272;17.780;2023-03-20T02:59:19;3.10;99.90
17236;DHT22;8734;59.272;17.780;2023-03-20T03:01:53;3.10;99.90
17236;DHT22;8734;59.272;17.780;2023-03-20T03:04:26;3.10;99.90
17236;DHT22;8734;59.272;17.780;2023-03-20T03:06:57;3.10;99.90
17236;DHT22;8734;59.272;17.780;2023-03-20T03:09:29;3.10;99.90
17236;DHT22;8734;59.272;17.780;2023-03-20T03:12:02;3.10;99.90
17236;DHT22;8734;59.272;17.780;2023-03-20T03:14:36;3.10;99.90
17236;DHT22;8734;59.272;17.780;2023-03-20T03:17:06;3.20;99.90
17236;DHT22;8734;59.272;17.780;2023-03-20T03:19:36;3.20;99.90
17236;DHT22;8734;59.272;17.780;2023-03-20T03:22:06;3.20;99.90
17236;DHT22;8734;59.272;17.780;2023-03-20T03:24:37;3.30;99.90
17236;DHT22;8734;59.272;17.780;2023-03-20T03:27:12;3.20;99.90
17236;DHT22;8734;59.272;17.780;2023-03-20T03:29:46;3.20;99.90
17236;DHT22;8734;59.272;17.780;2023-03-20T03:32:26;3.30;99.90
17236;DHT22;8734;59.272;17.780;2023-03-20T03:34:55;3.30;99.90
17236;DHT22;8734;59.272;17.780;2023-03-20T03:37:32;3.20;99.90
17236;DHT22;8734;59.272;17.780;2023-03-20T03:40:16;3.20;99.90
17236;DHT22;8734;59.272;17.780;2023-03-20T03:42:51;3.20;99.90
17236;DHT22;8734;59.272;17.780;2023-03-20T03:45:25;3.20;99.90
17236;DHT22;8734;59.272;17.780;2023-03-20T03:48:00;3.30;99.90
17236;DHT22;8734;59.272;17.780;2023-03-20T03:50:31;3.30;99.90
17236;DHT22;8734;59.272;17.780;2023-03-20T03:53:05;3.30;99.90
17236;DHT22;8734;59.272;17.780;2023-03-20T03:55:39;3.30;99.90
17236;DHT22;8734;59.272;17.780;2023-03-20T03:58:12;3.30;99.90
17236;DHT22;8734;59.272;17.780;2023-03-20T04:00:43;3.40;99.90
17236;DHT22;8734;59.272;17.780;2023-03-20T04:03:14;3.40;99.90
17236;DHT22;8734;59.272;17.780;2023-03-20T04:05:44;3.40;99.90
17236;DHT22;8734;59.272;17.780;2023-03-20T04:08:13;3.40;99.90
17236;DHT22;8734;59.272;17.780;2023-03-20T04:10:44;3.40;99.90
17236;DHT22;8734;59.272;17.780;2023-03-20T04:13:13;3.40;99.90
17236;DHT22;8734;59.272;17.780;2023-03-20T04:15:42;3.40;99.90
17236;DHT22;8734;59.272;17.780;2023-03-20T04:18:13;3.40;99.90
17236;DHT22;8734;59.272;17.780;2023-03-20T04:20:43;3.30;99.90
17236;DHT22;8734;59.272;17.780;2023-03-20T04:23:12;3.40;99.90
17236;DHT22;8734;59.272;17.780;2023-03-20T04:25:40;3.40;99.90
17236;DHT22;8734;59.272;17.780;2023-03-20T04:28:10;3.40;99.90
17236;DHT22;8734;59.272;17.780;2023-03-20T04:30:42;3.40;99.90
17236;DHT22;8734;59.272;17.780;2023-03-20T04:33:14;3.40;99.90
17236;DHT22;8734;59.272;17.780;2023-03-20T04:35:42;3.50;99.90
17236;DHT22;8734;59.272;17.780;2023-03-20T04:38:11;3.50;99.90
17236;DHT22;8734;59.272;17.780;2023-03-20T04:40:39;3.60;99.90
17236;DHT22;8734;59.272;17.780;2023-03-20T04:43:09;3.50;99.90
17236;DHT22;8734;59.272;17.780;2023-03-20T04:45:38;3.60;99.90
17236;DHT22;8734;59.272;17.780;2023-03-20T04:48:07;3.60;99.90
17236;DHT22;8734;59.272;17.780;2023-03-20T04:50:36;3.60;99.90
17236;DHT22;8734;59.272;17.780;2023-03-20T04:53:04;3.60;99.90
17236;DHT22;8734;59.272;17.780;2023-03-20T04:55:32;3.60;99.90
17236;DHT22;8734;59.272;17.780;2023-03-20T04:58:02;3.70;99.90
17236;DHT22;8734;59.272;17.780;2023-03-20T05:00:32;3.60;99.90
17236;DHT22;8734;59.272;17.780;2023-03-20T05:03:00;3.70;99.90
17236;DHT22;8734;59.272;17.780;2023-03-20T05:05:29;3.70;99.90
17236;DHT22;8734;59.272;17.780;2023-03-20T05:07:57;3.80;99.90
17236;DHT22;8734;59.272;17.780;2023-03-20T05:10:26;3.80;99.90
17236;DHT22;8734;59.272;17.780;2023-03-20T05:12:55;3.80;99.90
17236;DHT22;8734;59.272;17.780;2023-03-20T05:15:23;3.80;99.90
17236;DHT22;8734;59.272;17.780;2023-03-20T05:17:53;3.90;99.90
17236;DHT22;8734;59.272;17.780;2023-03-20T05:20:22;3.90;99.90
17236;DHT22;8734;59.272;17.780;2023-03-20T05:22:50;3.90;99.90
17236;DHT22;8734;59.272;17.780;2023-03-20T05:25:19;3.90;99.90
17236;DHT22;8734;59.272;17.780;2023-03-20T05:27:48;3.90;99.90
17236;DHT22;8734;59.272;17.780;2023-03-20T05:30:16;3.90;99.90
17236;DHT22;8734;59.272;17.780;2023-03-20T05:32:45;3.90;99.90
17236;DHT22;8734;59.272;17.780;2023-03-20T05:35:18;3.90;99.90
17236;DHT22;8734;59.272;17.780;2023-03-20T05:37:46;4.10;99.90
17236;DHT22;8734;59.272;17.780;2023-03-20T05:40:16;4.00;99.90
17236;DHT22;8734;59.272;17.780;2023-03-20T05:42:45;4.10;99.90
17236;DHT22;8734;59.272;17.780;2023-03-20T05:45:14;4.10;99.90
17236;DHT22;8734;59.272;17.780;2023-03-20T05:47:42;4.10;99.90
17236;DHT22;8734;59.272;17.780;2023-03-20T05:50:12;4.10;99.90
17236;DHT22;8734;59.272;17.780;2023-03-20T05:52:45;4.10;99.90
17236;DHT22;8734;59.272;17.780;2023-03-20T05:55:15;4.10;99.90
17236;DHT22;8734;59.272;17.780;2023-03-20T05:57:43;4.20;99.90
17236;DHT22;8734;59.272;17.780;2023-03-20T06:00:12;4.20;99.90
17236;DHT22;8734;59.272;17.780;2023-03-20T06:02:41;4.10;99.90
17236;DHT22;8734;59.272;17.780;2023-03-20T06:05:13;4.10;99.90
17236;DHT22;8734;59.272;17.780;2023-03-20T06:07:43;4.20;99.90
17236;DHT22;8734;59.272;17.780;2023-03-20T06:10:12;4.20;99.90
17236;DHT22;8734;59.272;17.780;2023-03-20T06:12:40;4.20;99.90
17236;DHT22;8734;59.272;17.780;2023-03-20T06:15:08;4.10;99.90
17236;DHT22;8734;59.272;17.780;2023-03-20T06:17:37;4.10;99.90
17236;DHT22;8734;59.272;17.780;2023-03-20T06:20:07;4.10;99.90
17236;DHT22;8734;59.272;17.780;2023-03-20T06:22:36;4.10;99.90
17236;DHT22;8734;59.272;17.780;2023-03-20T06:25:06;4.20;99.90
17236;DHT22;8734;59.272;17.780;2023-03-20T06:27:35;4.20;99.90
17236;DHT22;8734;59.272;17.780;2023-03-20T06:30:04;4.20;99.90
17236;DHT22;8734;59.272;17.780;2023-03-20T06:32:32;4.20;99.90
17236;DHT22;8734;59.272;17.780;2023-03-20T06:35:01;4.30;99.90
17236;DHT22;8734;59.272;17.780;2023-03-20T06:37:31;4.30;99.90
17236;DHT22;8734;59.272;17.780;2023-03-20T06:40:00;4.30;99.90
17236;DHT22;8734;59.272;17.780;2023-03-20T06:42:30;4.30;99.90
17236;DHT22;8734;59.272;17.780;2023-03-20T06:44:59;4.40;99.90
17236;DHT22;8734;59.272;17.780;2023-03-20T06:47:27;4.40;99.90
17236;DHT22;8734;59.272;17.780;2023-03-20T06:49:55;4.40;99.90
17236;DHT22;8734;59.272;17.780;2023-03-20T06:52:24;4.50;99.90
17236;DHT22;8734;59.272;17.780;2023-03-20T06:54:53;4.50;99.90
17236;DHT22;8734;59.272;17.780;2023-03-20T06:57:22;4.60;99.90
17236;DHT22;8734;59.272;17.780;2023-03-20T06:59:51;4.60;99.90
17236;DHT22;8734;59.272;17.780;2023-03-20T07:02:20;4.50;99.90
17236;DHT22;8734;59.272;17.780;2023-03-20T07:04:49;4.50;99.90
17236;DHT22;8734;59.272;17.780;2023-03-20T07:07:18;4.50;99.90
17236;DHT22;8734;59.272;17.780;2023-03-20T07:09:47;4.50;99.90
17236;DHT22;8734;59.272;17.780;2023-03-20T07:12:16;4.50;99.90
17236;DHT22;8734;59.272;17.780;2023-03-20T07:14:45;4.50;99.90
17236;DHT22;8734;59.272;17.780;2023-03-20T07:17:16;4.60;99.90
17236;DHT22;8734;59.272;17.780;2023-03-20T07:19:44;4.60;99.90
17236;DHT22;8734;59.272;17.780;2023-03-20T07:22:19;4.70;99.90
17236;DHT22;8734;59.272;17.780;2023-03-20T07:24:48;4.70;99.90
17236;DHT22;8734;59.272;17.780;2023-03-20T07:27:17;4.70;99.90
17236;DHT22;8734;59.272;17.780;2023-03-20T07:29:46;4.70;99.90
17236;DHT22;8734;59.272;17.780;2023-03-20T07:32:16;4.80;99.90
17236;DHT22;8734;59.272;17.780;2023-03-20T07:34:44;4.90;99.90
17236;DHT22;8734;59.272;17.780;2023-03-20T07:37:13;4.90;99.90
17236;DHT22;8734;59.272;17.780;2023-03-20T07:39:42;5.00;99.90
17236;DHT22;8734;59.272;17.780;2023-03-20T07:42:10;5.00;99.90
17236;DHT22;8734;59.272;17.780;2023-03-20T07:44:39;5.00;99.90
17236;DHT22;8734;59.272;17.780;2023-03-20T07:47:08;5.10;99.90
17236;DHT22;8734;59.272;17.780;2023-03-20T07:49:37;5.10;99.90
17236;DHT22;8734;59.272;17.780;2023-03-20T07:52:07;5.10;99.90
17236;DHT22;8734;59.272;17.780;2023-03-20T07:54:35;5.20;99.90
17236;DHT22;8734;59.272;17.780;2023-03-20T07:57:03;5.20;99.90
17236;DHT22;8734;59.272;17.780;2023-03-20T07:59:32;5.20;99.90
17236;DHT22;8734;59.272;17.780;2023-03-20T08:02:00;5.30;99.90
17236;DHT22;8734;59.272;17.780;2023-03-20T08:04:28;5.30;99.90
17236;DHT22;8734;59.272;17.780;2023-03-20T08:06:58;5.30;99.90
17236;DHT22;8734;59.272;17.780;2023-03-20T08:09:27;5.30;99.90
17236;DHT22;8734;59.272;17.780;2023-03-20T08:11:55;5.40;99.90
17236;DHT22;8734;59.272;17.780;2023-03-20T08:14:23;5.40;99.90
17236;DHT22;8734;59.272;17.780;2023-03-20T08:16:52;5.40;99.90
17236;DHT22;8734;59.272;17.780;2023-03-20T08:19:40;5.50;99.90
17236;DHT22;8734;59.272;17.780;2023-03-20T08:22:10;5.50;99.90
17236;DHT22;8734;59.272;17.780;2023-03-20T08:24:38;5.60;99.90
17236;DHT22;8734;59.272;17.780;2023-03-20T08:27:07;5.60;99.90
17236;DHT22;8734;59.272;17.780;2023-03-20T08:29:35;5.60;99.90
17236;DHT22;8734;59.272;17.780;2023-03-20T08:32:04;5.60;99.90
17236;DHT22;8734;59.272;17.780;2023-03-20T08:34:32;5.50;99.90
17236;DHT22;8734;59.272;17.780;2023-03-20T08:37:02;5.50;99.90
17236;DHT22;8734;59.272;17.780;2023-03-20T08:39:32;5.60;99.90
17236;DHT22;8734;59.272;17.780;2023-03-20T08:42:02;5.70;99.90
17236;DHT22;8734;59.272;17.780;2023-03-20T08:44:30;5.80;99.90
17236;DHT22;8734;59.272;17.780;2023-03-20T08:46:59;5.80;99.90
17236;DHT22;8734;59.272;17.780;2023-03-20T08:49:27;5.90;99.90
17236;DHT22;8734;59.272;17.780;2023-03-20T08:51:55;6.00;99.90
17236;DHT22;8734;59.272;17.780;2023-03-20T08:54:24;6.00;99.90
17236;DHT22;8734;59.272;17.780;2023-03-20T08:56:54;6.00;99.90
17236;DHT22;8734;59.272;17.780;2023-03-20T08:59:23;6.10;99.90
17236;DHT22;8734;59.272;17.780;2023-03-20T09:01:51;6.20;99.90
17236;DHT22;8734;59.272;17.780;2023-03-20T09:04:19;6.20;99.90
17236;DHT22;8734;59.272;17.780;2023-03-20T09:06:48;6.10;99.90
17236;DHT22;8734;59.272;17.780;2023-03-20T09:09:17;6.10;99.90
17236;DHT22;8734;59.272;17.780;2023-03-20T09:11:47;6.10;99.90
17236;DHT22;8734;59.272;17.780;2023-03-20T09:14:17;6.10;99.90
17236;DHT22;8734;59.272;17.780;2023-03-20T09:16:45;6.10;99.90
17236;DHT22;8734;59.272;17.780;2023-03-20T09:19:15;6.10;99.90
17236;DHT22;8734;59.272;17.780;2023-03-20T09:21:44;5.80;99.90
17236;DHT22;8734;59.272;17.780;2023-03-20T09:24:12;5.70;99.90
17236;DHT22;8734;59.272;17.780;2023-03-20T09:26:41;5.60;99.90
17236;DHT22;8734;59.272;17.780;2023-03-20T09:29:09;5.60;99.90
17236;DHT22;8734;59.272;17.780;2023-03-20T09:31:39;5.60;99.90
17236;DHT22;8734;59.272;17.780;2023-03-20T09:34:07;5.70;99.90
17236;DHT22;8734;59.272;17.780;2023-03-20T09:36:36;5.60;99.90
17236;DHT22;8734;59.272;17.780;2023-03-20T09:39:04;5.60;99.90
17236;DHT22;8734;59.272;17.780;2023-03-20T09:41:33;5.70;99.90
17236;DHT22;8734;59.272;17.780;2023-03-20T09:44:40;5.60;99.90
17236;DHT22;8734;59.272;17.780;2023-03-20T09:47:18;5.60;99.90
17236;DHT22;8734;59.272;17.780;2023-03-20T09:50:04;5.70;99.90
17236;DHT22;8734;59.272;17.780;2023-03-20T09:52:37;5.70;99.90
17236;DHT22;8734;59.272;17.780;2023-03-20T09:55:13;5.70;99.90
17236;DHT22;8734;59.272;17.780;2023-03-20T09:57:45;5.70;99.90
17236;DHT22;8734;59.272;17.780;2023-03-20T10:00:17;5.80;99.90
17236;DHT22;8734;59.272;17.780;2023-03-20T10:02:50;5.90;99.90
17236;DHT22;8734;59.272;17.780;2023-03-20T10:05:24;5.90;99.90
17236;DHT22;8734;59.272;17.780;2023-03-20T10:07:54;5.90;99.90
17236;DHT22;8734;59.272;17.780;2023-03-20T10:10:28;6.00;99.90
17236;DHT22;8734;59.272;17.780;2023-03-20T10:13:07;6.00;99.90
17236;DHT22;8734;59.272;17.780;2023-03-20T10:15:44;6.00;99.90
17236;DHT22;8734;59.272;17.780;2023-03-20T10:18:22;6.00;99.90
17236;DHT22;8734;59.272;17.780;2023-03-20T10:20:54;6.10;99.90
17236;DHT22;8734;59.272;17.780;2023-03-20T10:23:29;6.20;99.90
17236;DHT22;8734;59.272;17.780;2023-03-20T10:26:04;6.30;99.90
17236;DHT22;8734;59.272;17.780;2023-03-20T10:28:37;6.30;99.90
17236;DHT22;8734;59.272;17.780;2023-03-20T10:31:27;6.30;99.90
17236;DHT22;8734;59.272;17.780;2023-03-20T10:34:16;6.40;99.90
17236;DHT22;8734;59.272;17.780;2023-03-20T10:37:01;6.60;99.90
17236;DHT22;8734;59.272;17.780;2023-03-20T10:39:46;6.60;99.90
17236;DHT22;8734;59.272;17.780;2023-03-20T10:42:19;6.70;99.90
17236;DHT22;8734;59.272;17.780;2023-03-20T10:44:52;6.80;99.90
17236;DHT22;8734;59.272;17.780;2023-03-20T10:47:24;6.90;99.90
17236;DHT22;8734;59.272;17.780;2023-03-20T10:49:58;7.10;99.90
17236;DHT22;8734;59.272;17.780;2023-03-20T10:52:31;7.10;99.90
17236;DHT22;8734;59.272;17.780;2023-03-20T10:55:03;7.10;99.90
17236;DHT22;8734;59.272;17.780;2023-03-20T10:57:36;7.30;99.90
17236;DHT22;8734;59.272;17.780;2023-03-20T11:00:13;7.40;99.90
17236;DHT22;8734;59.272;17.780;2023-03-20T11:02:45;7.40;99.90
17236;DHT22;8734;59.272;17.780;2023-03-20T11:05:22;7.50;99.90
17236;DHT22;8734;59.272;17.780;2023-03-20T11:08:00;7.50;99.90
17236;DHT22;8734;59.272;17.780;2023-03-20T11:10:31;7.60;99.90
17236;DHT22;8734;59.272;17.780;2023-03-20T11:13:13;7.50;99.90
17236;DHT22;8734;59.272;17.780;2023-03-20T11:15:42;7.50;99.90
17236;DHT22;8734;59.272;17.780;2023-03-20T11:18:12;7.60;99.90
17236;DHT22;8734;59.272;17.780;2023-03-20T11:20:48;7.50;99.90
17236;DHT22;8734;59.272;17.780;2023-03-20T11:23:18;7.50;99.90
17236;DHT22;8734;59.272;17.780;2023-03-20T11:25:50;7.50;99.90
17236;DHT22;8734;59.272;17.780;2023-03-20T11:28:35;7.50;99.90
17236;DHT22;8734;59.272;17.780;2023-03-20T11:31:06;7.40;99.90
17236;DHT22;8734;59.272;17.780;2023-03-20T11:33:43;7.30;99.90
17236;DHT22;8734;59.272;17.780;2023-03-20T11:36:22;7.30;99.90
17236;DHT22;8734;59.272;17.780;2023-03-20T11:38:57;7.30;99.90
17236;DHT22;8734;59.272;17.780;2023-03-20T11:41:28;7.30;99.90
17236;DHT22;8734;59.272;17.780;2023-03-20T11:43:56;7.30;99.90
17236;DHT22;8734;59.272;17.780;2023-03-20T11:46:25;7.20;99.90
17236;DHT22;8734;59.272;17.780;2023-03-20T11:49:05;7.20;99.90
17236;DHT22;8734;59.272;17.780;2023-03-20T11:51:36;7.10;99.90
17236;DHT22;8734;59.272;17.780;2023-03-20T11:54:12;7.20;99.90
17236;DHT22;8734;59.272;17.780;2023-03-20T11:56:51;7.20;99.90
17236;DHT22;8734;59.272;17.780;2023-03-20T11:59:20;7.20;99.90
17236;DHT22;8734;59.272;17.780;2023-03-20T12:01:51;7.20;99.90
17236;DHT22;8734;59.272;17.780;2023-03-20T12:04:26;7.30;99.90
17236;DHT22;8734;59.272;17.780;2023-03-20T12:07:01;7.40;99.90
17236;DHT22;8734;59.272;17.780;2023-03-20T12:09:36;7.60;99.90
17236;DHT22;8734;59.272;17.780;2023-03-20T12:12:12;7.70;99.90
17236;DHT22;8734;59.272;17.780;2023-03-20T12:14:46;7.90;99.90
17236;DHT22;8734;59.272;17.780;2023-03-20T12:17:39;8.10;99.90
17236;DHT22;8734;59.272;17.780;2023-03-20T12:20:23;8.20;99.90
17236;DHT22;8734;59.272;17.780;2023-03-20T12:23:00;8.40;99.90
17236;DHT22;8734;59.272;17.780;2023-03-20T12:25:36;8.50;99.90
17236;DHT22;8734;59.272;17.780;2023-03-20T12:28:13;8.60;99.90
17236;DHT22;8734;59.272;17.780;2023-03-20T12:30:53;8.70;99.90
17236;DHT22;8734;59.272;17.780;2023-03-20T12:33:34;8.70;99.90
17236;DHT22;8734;59.272;17.780;2023-03-20T12:36:12;8.80;99.90
17236;DHT22;8734;59.272;17.780;2023-03-20T12:38:42;8.90;99.90
17236;DHT22;8734;59.272;17.780;2023-03-20T12:41:13;8.80;99.90
17236;DHT22;8734;59.272;17.780;2023-03-20T12:44:15;8.70;99.90
17236;DHT22;8734;59.272;17.780;2023-03-20T12:46:52;8.50;99.90
17236;DHT22;8734;59.272;17.780;2023-03-20T12:49:31;8.40;99.90
17236;DHT22;8734;59.272;17.780;2023-03-20T12:52:08;8.30;99.90
17236;DHT22;8734;59.272;17.780;2023-03-20T12:54:53;8.20;99.90
17236;DHT22;8734;59.272;17.780;2023-03-20T12:57:27;8.20;99.90
17236;DHT22;8734;59.272;17.780;2023-03-20T13:00:10;8.20;99.90
17236;DHT22;8734;59.272;17.780;2023-03-20T13:02:51;8.10;99.90
17236;DHT22;8734;59.272;17.780;2023-03-20T13:05:30;8.20;99.90
17236;DHT22;8734;59.272;17.780;2023-03-20T13:08:25;8.20;99.90
17236;DHT22;8734;59.272;17.780;2023-03-20T13:11:05;8.20;99.90
17236;DHT22;8734;59.272;17.780;2023-03-20T13:13:40;8.30;99.90
17236;DHT22;8734;59.272;17.780;2023-03-20T13:16:18;8.30;99.90
17236;DHT22;8734;59.272;17.780;2023-03-20T13:18:55;8.30;99.90
17236;DHT22;8734;59.272;17.780;2023-03-20T13:21:31;8.30;99.90
17236;DHT22;8734;59.272;17.780;2023-03-20T13:24:17;8.20;99.90
17236;DHT22;8734;59.272;17.780;2023-03-20T13:26:53;8.30;99.90
17236;DHT22;8734;59.272;17.780;2023-03-20T13:29:28;8.50;99.90
17236;DHT22;8734;59.272;17.780;2023-03-20T13:32:05;8.50;99.90
17236;DHT22;8734;59.272;17.780;2023-03-20T13:34:52;8.50;99.90
17236;DHT22;8734;59.272;17.780;2023-03-20T13:37:26;8.50;99.90
17236;DHT22;8734;59.272;17.780;2023-03-20T13:40:03;8.40;99.90
17236;DHT22;8734;59.272;17.780;2023-03-20T13:42:37;8.40;99.90
17236;DHT22;8734;59.272;17.780;2023-03-20T13:45:27;8.30;99.90
17236;DHT22;8734;59.272;17.780;2023-03-20T13:48:01;8.30;99.90
17236;DHT22;8734;59.272;17.780;2023-03-20T13:50:38;8.20;99.90
17236;DHT22;8734;59.272;17.780;2023-03-20T13:53:16;8.00;99.90
17236;DHT22;8734;59.272;17.780;2023-03-20T13:55:53;7.80;99.90
17236;DHT22;8734;59.272;17.780;2023-03-20T13:58:49;7.70;99.90
17236;DHT22;8734;59.272;17.780;2023-03-20T14:01:24;7.60;99.90
17236;DHT22;8734;59.272;17.780;2023-03-20T14:03:56;7.50;99.90
17236;DHT22;8734;59.272;17.780;2023-03-20T14:06:51;7.30;99.90
17236;DHT22;8734;59.272;17.780;2023-03-20T14:09:31;7.10;99.90
17236;DHT22;8734;59.272;17.780;2023-03-20T14:12:05;6.90;99.90
17236;DHT22;8734;59.272;17.780;2023-03-20T14:14:41;6.70;99.90
17236;DHT22;8734;59.272;17.780;2023-03-20T14:17:18;6.50;99.90
17236;DHT22;8734;59.272;17.780;2023-03-20T14:19:48;6.20;99.90
17236;DHT22;8734;59.272;17.780;2023-03-20T14:22:19;6.10;99.90
17236;DHT22;8734;59.272;17.780;2023-03-20T14:24:53;6.00;99.90
17236;DHT22;8734;59.272;17.780;2023-03-20T14:27:25;5.90;99.90
17236;DHT22;8734;59.272;17.780;2023-03-20T14:30:41;5.90;99.90
17236;DHT22;8734;59.272;17.780;2023-03-20T14:33:26;5.80;99.90
17236;DHT22;8734;59.272;17.780;2023-03-20T14:36:15;5.70;99.90
17236;DHT22;8734;59.272;17.780;2023-03-20T14:38:50;5.70;99.90
17236;DHT22;8734;59.272;17.780;2023-03-20T14:41:25;5.70;99.90
17236;DHT22;8734;59.272;17.780;2023-03-20T14:44:05;5.60;99.90
17236;DHT22;8734;59.272;17.780;2023-03-20T14:46:47;5.60;99.90
17236;DHT22;8734;59.272;17.780;2023-03-20T14:49:25;5.50;99.90
17236;DHT22;8734;59.272;17.780;2023-03-20T14:52:01;5.40;99.90
17236;DHT22;8734;59.272;17.780;2023-03-20T14:54:30;5.40;99.90
17236;DHT22;8734;59.272;17.780;2023-03-20T14:57:08;5.30;99.90
17236;DHT22;8734;59.272;17.780;2023-03-20T14:59:37;5.30;99.90
17236;DHT22;8734;59.272;17.780;2023-03-20T15:02:24;5.30;99.90
17236;DHT22;8734;59.272;17.780;2023-03-20T15:04:53;5.30;99.90
17236;DHT22;8734;59.272;17.780;2023-03-20T15:07:25;5.20;99.90
17236;DHT22;8734;59.272;17.780;2023-03-20T15:09:57;5.20;99.90
17236;DHT22;8734;59.272;17.780;2023-03-20T15:12:31;5.20;99.90
17236;DHT22;8734;59.272;17.780;2023-03-20T15:15:02;5.20;99.90
17236;DHT22;8734;59.272;17.780;2023-03-20T15:17:37;5.10;99.90
17236;DHT22;8734;59.272;17.780;2023-03-20T15:20:12;5.00;99.90
17236;DHT22;8734;59.272;17.780;2023-03-20T15:22:49;5.00;99.90
17236;DHT22;8734;59.272;17.780;2023-03-20T15:25:19;4.90;99.90
17236;DHT22;8734;59.272;17.780;2023-03-20T15:27:48;4.80;99.90
17236;DHT22;8734;59.272;17.780;2023-03-20T15:30:20;4.80;99.90
17236;DHT22;8734;59.272;17.780;2023-03-20T15:32:53;4.70;99.90
17236;DHT22;8734;59.272;17.780;2023-03-20T15:35:24;4.70;99.90
17236;DHT22;8734;59.272;17.780;2023-03-20T15:37:54;4.70;99.90
17236;DHT22;8734;59.272;17.780;2023-03-20T15:40:27;4.60;99.90
17236;DHT22;8734;59.272;17.780;2023-03-20T15:43:12;4.50;99.90
17236;DHT22;8734;59.272;17.780;2023-03-20T15:45:42;4.40;99.90
17236;DHT22;8734;59.272;17.780;2023-03-20T15:48:14;4.40;99.90
17236;DHT22;8734;59.272;17.780;2023-03-20T15:50:47;4.40;99.90
17236;DHT22;8734;59.272;17.780;2023-03-20T15:53:17;4.30;99.90
17236;DHT22;8734;59.272;17.780;2023-03-20T15:55:48;4.30;99.90
17236;DHT22;8734;59.272;17.780;2023-03-20T15:58:17;4.20;99.90
17236;DHT22;8734;59.272;17.780;2023-03-20T16:00:47;4.10;99.90
17236;DHT22;8734;59.272;17.780;2023-03-20T16:03:20;4.10;99.90
17236;DHT22;8734;59.272;17.780;2023-03-20T16:05:50;4.10;99.90
17236;DHT22;8734;59.272;17.780;2023-03-20T16:08:22;4.00;99.90
17236;DHT22;8734;59.272;17.780;2023-03-20T16:10:55;4.00;99.90
17236;DHT22;8734;59.272;17.780;2023-03-20T16:13:24;3.90;99.90
17236;DHT22;8734;59.272;17.780;2023-03-20T16:15:53;3.90;99.90
17236;DHT22;8734;59.272;17.780;2023-03-20T16:18:23;3.80;99.90
17236;DHT22;8734;59.272;17.780;2023-03-20T16:20:53;3.70;99.90
17236;DHT22;8734;59.272;17.780;2023-03-20T16:23:31;3.70;99.90
17236;DHT22;8734;59.272;17.780;2023-03-20T16:26:02;3.70;99.90
17236;DHT22;8734;59.272;17.780;2023-03-20T16:28:35;3.70;99.90
17236;DHT22;8734;59.272;17.780;2023-03-20T16:31:07;3.60;99.90
17236;DHT22;8734;59.272;17.780;2023-03-20T16:33:39;3.60;99.90